createdAt,value
2017-11-09T00:01:12.818Z,14.30
2017-11-09T00:38:46.412Z,13.40
2017-11-09T00:41:13.859Z,14.43
2017-11-09T00:43:41.296Z,13.47
2017-11-09T00:46:09.505Z,15.60
2017-11-09T00:48:36.952Z,14.57
2017-11-09T00:51:04.407Z,15.07
2017-11-09T00:53:31.848Z,13.80
2017-11-09T00:55:59.297Z,13.40
2017-11-09T00:58:26.746Z,14.17
2017-11-09T01:00:54.964Z,13.70
2017-11-09T01:03:23.185Z,13.80
2017-11-09T01:05:51.398Z,12.20
2017-11-09T01:08:18.840Z,13.17
2017-11-09T01:10:46.288Z,13.10
2017-11-09T01:13:13.740Z,14.13
2017-11-09T01:15:41.953Z,13.57
2017-11-09T01:18:09.391Z,13.20
2017-11-09T01:20:36.849Z,13.53
2017-11-09T01:23:04.295Z,14.30
2017-11-09T01:25:31.745Z,14.00
2017-11-09T01:27:59.193Z,14.97
2017-11-09T01:30:27.429Z,15.03
2017-11-09T01:32:54.875Z,13.13
2017-11-09T01:35:22.315Z,13.80
2017-11-09T01:37:49.764Z,11.93
2017-11-09T01:40:17.224Z,11.90
2017-11-09T01:42:44.671Z,12.20
2017-11-09T01:45:12.113Z,13.43
2017-11-09T01:47:39.569Z,12.23
2017-11-09T01:50:07.020Z,11.10
2017-11-09T01:52:34.473Z,12.93
2017-11-09T01:55:01.921Z,12.57
2017-11-09T01:57:30.136Z,11.27
2017-11-09T01:59:57.579Z,11.93
2017-11-09T02:02:25.051Z,12.80
2017-11-09T02:04:52.477Z,11.87
2017-11-09T02:07:19.929Z,13.43
2017-11-09T02:09:47.370Z,12.20
2017-11-09T02:12:15.590Z,13.80
2017-11-09T02:14:43.040Z,12.53
2017-11-09T02:17:10.490Z,13.30
2017-11-09T02:19:37.949Z,12.97
2017-11-09T02:22:05.404Z,13.30
2017-11-09T02:24:32.852Z,13.40
2017-11-09T02:27:00.296Z,13.67
2017-11-09T02:29:27.736Z,13.60
2017-11-09T02:31:55.945Z,14.10
2017-11-09T02:34:23.401Z,14.50
2017-11-09T02:36:50.861Z,15.70
2017-11-09T02:39:18.322Z,15.60
2017-11-09T02:41:45.768Z,16.70
2017-11-09T02:44:13.238Z,17.30
2017-11-09T02:46:40.678Z,16.30
2017-11-09T02:49:08.136Z,16.67
2017-11-09T02:51:35.592Z,15.87
2017-11-09T02:54:03.047Z,17.57
2017-11-09T02:56:30.492Z,17.70
2017-11-09T02:58:57.958Z,16.80
2017-11-09T03:01:25.413Z,16.63
2017-11-09T03:03:52.872Z,17.93
2017-11-09T03:06:20.321Z,18.10
2017-11-09T03:08:47.772Z,17.40
2017-11-09T03:11:15.217Z,17.10
2017-11-09T03:13:42.663Z,18.37
2017-11-09T03:16:10.892Z,17.37
2017-11-09T03:18:38.340Z,17.10
2017-11-09T03:21:05.843Z,18.00
2017-11-09T03:23:34.056Z,18.10
2017-11-09T03:26:01.513Z,18.07
2017-11-09T03:28:28.967Z,19.80
2017-11-09T03:30:56.425Z,19.20
2017-11-09T03:33:23.881Z,18.83
2017-11-09T03:35:51.337Z,16.17
2017-11-09T03:38:18.776Z,17.73
2017-11-09T03:40:46.233Z,18.30
2017-11-09T03:43:13.677Z,18.47
2017-11-09T03:45:41.892Z,18.20
2017-11-09T03:48:09.335Z,17.20
2017-11-09T03:50:36.830Z,17.67
2017-11-09T03:53:04.275Z,17.37
2017-11-09T03:55:31.722Z,17.27
2017-11-09T03:57:59.167Z,16.70
2017-11-09T04:00:26.616Z,17.03
2017-11-09T04:02:54.069Z,17.83
2017-11-09T04:05:21.513Z,19.40
2017-11-09T04:07:48.964Z,19.80
2017-11-09T04:10:16.425Z,19.87
2017-11-09T04:12:43.864Z,20.90
2017-11-09T04:15:12.081Z,21.30
2017-11-09T04:17:39.525Z,21.10
2017-11-09T04:20:06.980Z,20.77
2017-11-09T04:22:34.423Z,23.93
2017-11-09T04:25:01.868Z,21.63
2017-11-09T04:27:29.313Z,23.27
2017-11-09T04:29:57.524Z,20.00
2017-11-09T04:32:24.977Z,22.80
2017-11-09T04:34:52.453Z,22.93
2017-11-09T04:37:19.900Z,21.13
2017-11-09T04:39:47.343Z,24.07
2017-11-09T04:42:14.796Z,23.13
2017-11-09T04:44:42.252Z,33.27
2017-11-09T04:47:09.693Z,26.63
2017-11-09T04:49:37.136Z,48.03
2017-11-09T04:52:05.385Z,34.33
2017-11-09T04:54:32.837Z,24.57
2017-11-09T04:57:00.281Z,23.40
2017-11-09T04:59:27.724Z,22.40
2017-11-09T05:01:55.167Z,19.90
2017-11-09T05:04:22.627Z,22.27
2017-11-09T05:06:50.081Z,21.17
2017-11-09T05:09:17.516Z,21.03
2017-11-09T05:11:44.965Z,21.33
2017-11-09T05:14:13.218Z,24.63
2017-11-09T05:16:40.707Z,22.43
2017-11-09T05:19:08.148Z,23.00
2017-11-09T05:21:36.400Z,20.97
2017-11-09T05:24:03.851Z,20.87
2017-11-09T05:26:32.801Z,21.50
2017-11-09T05:29:00.257Z,22.67
2017-11-09T05:31:27.700Z,21.20
2017-11-09T05:33:55.153Z,19.50
2017-11-09T05:36:22.597Z,25.30
2017-11-09T05:38:50.813Z,19.80
2017-11-09T05:41:18.258Z,20.43
2017-11-09T05:43:45.723Z,19.70
2017-11-09T05:46:13.170Z,20.17
2017-11-09T05:48:40.635Z,22.07
2017-11-09T05:51:08.085Z,21.30
2017-11-09T05:53:35.536Z,21.30
2017-11-09T05:56:02.992Z,19.93
2017-11-09T05:58:30.455Z,19.93
2017-11-09T06:00:57.901Z,21.43
2017-11-09T06:03:25.361Z,19.43
2017-11-09T06:05:52.812Z,19.17
2017-11-09T06:08:20.264Z,19.10
2017-11-09T06:10:47.704Z,19.47
2017-11-09T06:13:15.146Z,20.17
2017-11-09T06:15:43.355Z,21.97
2017-11-09T06:18:10.796Z,20.00
2017-11-09T06:20:38.248Z,20.43
2017-11-09T06:23:05.696Z,20.80
2017-11-09T06:25:33.913Z,19.70
2017-11-09T06:28:01.353Z,21.00
2017-11-09T06:30:28.809Z,21.13
2017-11-09T06:32:56.265Z,19.43
2017-11-09T06:35:23.721Z,19.93
2017-11-09T06:37:51.170Z,19.63
2017-11-09T06:40:18.933Z,20.33
2017-11-09T06:42:46.409Z,19.37
2017-11-09T06:45:13.868Z,19.50
2017-11-09T06:47:41.311Z,21.47
2017-11-09T06:50:08.764Z,20.87
2017-11-09T06:52:36.213Z,20.57
2017-11-09T06:55:03.674Z,20.10
2017-11-09T06:57:31.115Z,19.97
2017-11-09T06:59:58.577Z,20.20
2017-11-09T07:02:26.028Z,20.90
2017-11-09T07:04:53.472Z,21.10
2017-11-09T07:07:21.683Z,21.67
2017-11-09T07:09:49.135Z,21.43
2017-11-09T07:12:16.588Z,21.13
2017-11-09T07:14:44.042Z,18.73
2017-11-09T07:17:11.497Z,19.90
2017-11-09T07:19:38.956Z,20.10
2017-11-09T07:22:06.404Z,20.13
2017-11-09T07:24:33.875Z,19.17
2017-11-09T07:27:01.308Z,18.90
2017-11-09T07:29:28.774Z,20.80
2017-11-09T07:31:56.219Z,21.27
2017-11-09T07:34:23.672Z,19.60
2017-11-09T07:36:51.108Z,20.10
2017-11-09T07:39:19.344Z,20.87
2017-11-09T07:41:46.788Z,21.13
2017-11-09T07:44:14.232Z,22.73
2017-11-09T07:46:41.690Z,22.37
2017-11-09T07:49:09.137Z,21.97
2017-11-09T07:51:36.608Z,19.77
2017-11-09T07:54:04.049Z,22.37
2017-11-09T07:56:31.505Z,21.30
2017-11-09T07:58:58.962Z,21.73
2017-11-09T08:01:26.423Z,20.57
2017-11-09T08:03:53.874Z,21.03
2017-11-09T08:06:21.336Z,20.47
2017-11-09T08:08:48.792Z,20.40
2017-11-09T08:11:16.247Z,20.60
2017-11-09T08:13:43.704Z,21.40
2017-11-09T08:16:11.159Z,22.10
2017-11-09T08:18:38.625Z,20.47
2017-11-09T08:21:06.079Z,20.23
2017-11-09T08:23:33.529Z,19.43
2017-11-09T08:26:01.297Z,19.20
2017-11-09T08:28:29.916Z,17.60
2017-11-09T08:30:58.500Z,17.90
2017-11-09T08:36:29.584Z,17.23
2017-11-09T08:38:57.032Z,17.17
2017-11-09T08:41:24.477Z,17.13
2017-11-09T08:43:52.263Z,17.80
2017-11-09T08:46:20.511Z,17.00
2017-11-09T08:48:47.956Z,17.67
2017-11-09T08:51:15.396Z,18.37
2017-11-09T08:53:43.608Z,16.70
2017-11-09T08:56:11.056Z,16.50
2017-11-09T08:58:38.509Z,17.43
2017-11-09T09:01:05.964Z,16.73
2017-11-09T09:03:33.392Z,17.07
2017-11-09T09:06:01.631Z,17.33
2017-11-09T09:08:29.073Z,18.47
2017-11-09T09:10:57.287Z,17.20
2017-11-09T09:13:25.504Z,17.20
2017-11-09T09:15:52.942Z,19.43
2017-11-09T09:18:20.410Z,19.37
2017-11-09T09:20:48.311Z,18.67
2017-11-09T09:23:15.763Z,16.20
2017-11-09T09:25:44.019Z,19.27
2017-11-09T09:28:21.409Z,19.40
2017-11-09T09:30:48.857Z,19.00
2017-11-09T09:33:20.260Z,20.27
2017-11-09T09:35:51.368Z,18.67
2017-11-09T09:38:21.716Z,18.03
2017-11-09T09:40:49.148Z,19.50
2017-11-09T09:43:16.604Z,19.87
2017-11-09T09:45:44.114Z,18.17
2017-11-09T09:48:12.419Z,19.23
2017-11-09T09:50:39.851Z,19.67
2017-11-09T09:53:07.447Z,16.80
2017-11-09T09:55:35.036Z,19.80
2017-11-09T09:58:02.479Z,18.83
2017-11-09T10:00:29.930Z,17.77
2017-11-09T10:02:57.401Z,19.87
2017-11-09T10:05:24.845Z,16.33
2017-11-09T10:07:52.285Z,17.50
2017-11-09T10:10:19.883Z,18.17
2017-11-09T10:12:47.319Z,17.00
2017-11-09T10:15:14.764Z,16.10
2017-11-09T10:17:42.216Z,16.27
2017-11-09T10:20:09.673Z,16.40
2017-11-09T10:22:37.491Z,16.30
2017-11-09T10:25:05.700Z,17.30
2017-11-09T10:27:33.145Z,16.13
2017-11-09T10:30:00.599Z,17.57
2017-11-09T10:32:30.824Z,17.57
2017-11-09T10:34:58.284Z,15.80
2017-11-09T10:37:25.740Z,16.43
2017-11-09T10:39:53.182Z,16.27
2017-11-09T10:42:20.619Z,15.40
2017-11-09T10:44:48.831Z,15.70
2017-11-09T10:47:16.278Z,15.10
2017-11-09T10:49:43.731Z,16.33
2017-11-09T10:52:11.168Z,15.87
2017-11-09T10:54:38.619Z,15.77
2017-11-09T10:57:06.832Z,17.30
2017-11-09T10:59:34.285Z,18.70
2017-11-09T11:02:01.733Z,15.87
2017-11-09T11:04:29.200Z,16.90
2017-11-09T11:06:56.639Z,15.70
2017-11-09T11:09:24.090Z,17.60
2017-11-09T11:11:51.642Z,20.73
2017-11-09T11:14:19.089Z,16.80
2017-11-09T11:16:47.293Z,16.63
2017-11-09T11:19:14.742Z,15.37
2017-11-09T11:21:42.187Z,13.60
2017-11-09T11:24:09.629Z,14.83
2017-11-09T11:26:37.842Z,16.80
2017-11-09T11:29:05.280Z,13.40
2017-11-09T11:31:32.741Z,14.37
2017-11-09T11:34:00.182Z,15.97
2017-11-09T11:36:27.621Z,15.03
2017-11-09T11:38:55.832Z,15.53
2017-11-09T11:41:23.287Z,17.30
2017-11-09T11:43:50.740Z,19.50
2017-11-09T11:46:24.744Z,14.50
2017-11-09T11:48:52.199Z,14.20
2017-11-09T11:51:19.657Z,20.00
2017-11-09T11:53:47.113Z,15.33
2017-11-09T11:56:14.568Z,15.70
2017-11-09T11:58:42.023Z,16.23
2017-11-09T12:01:09.480Z,15.60
2017-11-09T12:03:36.929Z,16.57
2017-11-09T12:06:04.383Z,15.93
2017-11-09T12:08:31.819Z,15.10
2017-11-09T12:11:00.037Z,15.47
2017-11-09T12:13:27.495Z,18.10
2017-11-09T12:15:54.947Z,16.50
2017-11-09T12:18:22.400Z,17.50
2017-11-09T12:20:49.848Z,17.30
2017-11-09T12:23:17.304Z,15.93
2017-11-09T12:25:44.743Z,18.20
2017-11-09T12:28:12.201Z,16.90
2017-11-09T12:30:39.648Z,14.60
2017-11-09T12:33:07.092Z,15.23
2017-11-09T12:35:35.301Z,14.73
2017-11-09T12:38:02.759Z,14.47
2017-11-09T12:40:30.212Z,15.20
2017-11-09T12:42:57.667Z,13.67
2017-11-09T12:45:25.112Z,12.87
2017-11-09T12:47:52.560Z,14.57
2017-11-09T12:50:20.016Z,13.50
2017-11-09T12:52:47.472Z,12.27
2017-11-09T12:55:14.917Z,13.30
2017-11-09T12:57:43.145Z,13.50
2017-11-09T13:00:10.592Z,13.67
2017-11-09T13:02:38.064Z,14.00
2017-11-09T13:05:05.503Z,14.93
2017-11-09T13:07:32.949Z,14.00
2017-11-09T13:10:00.396Z,13.73
2017-11-09T13:12:27.827Z,13.23
2017-11-09T13:14:56.048Z,14.03
2017-11-09T13:17:23.497Z,13.90
2017-11-09T13:19:50.947Z,13.23
2017-11-09T13:22:18.400Z,13.67
2017-11-09T13:24:45.854Z,12.30
2017-11-09T13:27:13.300Z,15.00
2017-11-09T13:29:40.743Z,16.77
2017-11-09T13:32:08.180Z,15.47
2017-11-09T13:34:38.291Z,13.70
2017-11-09T13:37:05.734Z,13.57
2017-11-09T13:39:33.177Z,13.73
2017-11-09T13:42:00.623Z,14.67
2017-11-09T13:44:28.076Z,12.57
2017-11-09T13:46:56.285Z,12.60
2017-11-09T13:49:23.738Z,12.87
2017-11-09T13:51:51.170Z,13.20
2017-11-09T13:54:18.629Z,12.87
2017-11-09T13:56:46.059Z,12.37
2017-11-09T13:59:13.524Z,14.10
2017-11-09T14:01:40.960Z,13.67
2017-11-09T14:04:08.399Z,11.77
2017-11-09T14:06:36.622Z,13.50
2017-11-09T14:09:04.051Z,14.10
2017-11-09T14:11:31.492Z,12.97
2017-11-09T14:13:58.935Z,13.47
2017-11-09T14:16:27.160Z,13.40
2017-11-09T14:18:54.731Z,12.30
2017-11-09T14:21:23.081Z,13.07
2017-11-09T14:23:50.518Z,13.03
2017-11-09T14:26:17.969Z,12.40
2017-11-09T14:28:45.417Z,12.17
2017-11-09T14:31:13.636Z,12.33
2017-11-09T14:33:41.079Z,13.10
2017-11-09T14:36:08.532Z,15.27
2017-11-09T14:38:36.761Z,13.00
2017-11-09T14:41:04.224Z,14.27
2017-11-09T14:43:32.435Z,15.77
2017-11-09T14:45:59.881Z,15.87
2017-11-09T14:48:27.325Z,15.43
2017-11-09T14:50:54.767Z,14.87
2017-11-09T14:53:22.991Z,14.30
2017-11-09T14:55:50.455Z,14.23
2017-11-09T14:58:17.966Z,13.70
2017-11-09T15:00:45.416Z,14.80
2017-11-09T15:03:13.637Z,14.43
2017-11-09T15:05:41.080Z,14.27
2017-11-09T15:08:08.545Z,14.90
2017-11-09T15:10:35.995Z,15.17
2017-11-09T15:13:03.452Z,17.10
2017-11-09T15:15:30.907Z,14.87
2017-11-09T15:17:58.364Z,15.13
2017-11-09T15:20:25.820Z,14.33
2017-11-09T15:22:53.288Z,14.53
2017-11-09T15:25:20.753Z,15.10
2017-11-09T15:27:48.199Z,15.50
2017-11-09T15:30:15.650Z,15.57
2017-11-09T15:32:43.107Z,15.00
2017-11-09T15:35:10.551Z,13.87
2017-11-09T15:37:38.006Z,14.17
2017-11-09T15:40:05.469Z,15.73
2017-11-09T15:42:32.930Z,14.43
2017-11-09T15:45:00.391Z,14.97
2017-11-09T15:47:27.841Z,14.60
2017-11-09T15:49:55.292Z,13.20
2017-11-09T15:52:22.776Z,14.90
2017-11-09T15:54:50.252Z,12.37
2017-11-09T15:57:17.701Z,12.50
2017-11-09T15:59:45.146Z,14.00
2017-11-09T16:02:12.598Z,13.27
2017-11-09T16:04:40.819Z,11.13
2017-11-09T16:07:14.688Z,12.60
2017-11-09T16:09:42.145Z,14.40
2017-11-09T16:12:09.605Z,13.50
2017-11-09T16:14:37.056Z,15.03
2017-11-09T16:17:04.516Z,26.70
2017-11-09T16:19:31.976Z,34.50
2017-11-09T16:21:59.432Z,26.20
2017-11-09T16:24:26.888Z,21.40
2017-11-09T16:26:57.273Z,23.17
2017-11-09T16:29:24.729Z,18.67
2017-11-09T16:31:52.183Z,17.73
2017-11-09T16:34:19.647Z,18.33
2017-11-09T16:36:47.100Z,17.60
2017-11-09T16:39:14.555Z,17.30
2017-11-09T16:41:42.016Z,17.17
2017-11-09T16:44:09.473Z,16.97
2017-11-09T16:46:36.960Z,16.63
2017-11-09T16:49:04.411Z,20.07
2017-11-09T16:51:31.887Z,17.97
2017-11-09T16:54:01.153Z,22.97
2017-11-09T16:56:28.630Z,18.03
2017-11-09T16:58:56.071Z,20.20
2017-11-09T17:01:23.519Z,19.00
2017-11-09T17:03:50.970Z,23.40
2017-11-09T17:06:18.419Z,27.37
2017-11-09T17:08:46.629Z,24.17
2017-11-09T17:11:14.077Z,21.30
2017-11-09T17:13:41.531Z,17.13
2017-11-09T17:16:09.001Z,18.23
2017-11-09T17:18:36.444Z,17.03
2017-11-09T17:21:03.969Z,15.13
2017-11-09T17:23:31.420Z,14.97
2017-11-09T17:25:58.882Z,16.23
2017-11-09T17:28:26.320Z,16.60
2017-11-09T17:30:53.907Z,15.70
2017-11-09T17:33:21.482Z,16.83
2017-11-09T17:35:48.928Z,18.10
2017-11-09T17:38:16.380Z,18.20
2017-11-09T17:40:43.832Z,15.47
2017-11-09T17:43:11.286Z,17.87
2017-11-09T17:45:38.732Z,15.50
2017-11-09T17:48:06.188Z,16.00
2017-11-09T17:50:33.651Z,15.60
2017-11-09T17:53:01.332Z,15.70
2017-11-09T17:55:29.580Z,15.73
2017-11-09T17:57:57.034Z,16.10
2017-11-09T18:00:24.502Z,16.83
2017-11-09T18:02:51.955Z,13.60
2017-11-09T18:05:19.408Z,14.67
2017-11-09T18:07:46.867Z,13.20
2017-11-09T18:10:14.320Z,13.60
2017-11-09T18:12:41.775Z,13.60
2017-11-09T18:15:09.217Z,14.20
2017-11-09T18:17:36.668Z,14.40
2017-11-09T18:20:04.109Z,14.60
2017-11-09T18:22:37.244Z,14.17
2017-11-09T18:25:04.703Z,15.53
2017-11-09T18:27:32.160Z,15.73
2017-11-09T18:29:59.603Z,17.20
2017-11-09T18:32:27.079Z,18.23
2017-11-09T18:34:54.511Z,18.10
2017-11-09T18:37:21.968Z,18.73
2017-11-09T18:39:49.408Z,17.40
2017-11-09T18:42:16.862Z,16.60
2017-11-09T18:44:44.299Z,15.10
2017-11-09T18:47:12.534Z,16.33
2017-11-09T18:49:40.009Z,16.33
2017-11-09T18:52:07.444Z,16.20
2017-11-09T18:54:34.898Z,17.20
2017-11-09T18:57:02.374Z,17.80
2017-11-09T18:59:29.828Z,16.53
2017-11-09T19:01:57.295Z,16.80
2017-11-09T19:04:24.752Z,15.47
2017-11-09T19:06:52.203Z,14.53
2017-11-09T19:09:19.662Z,13.80
2017-11-09T19:11:47.115Z,14.20
2017-11-09T19:14:14.569Z,13.97
2017-11-09T19:16:42.016Z,13.77
2017-11-09T19:19:09.493Z,14.93
2017-11-09T19:21:36.941Z,15.40
2017-11-09T19:24:04.391Z,16.80
2017-11-09T19:26:31.840Z,18.57
2017-11-09T19:28:59.306Z,15.03
2017-11-09T19:31:26.743Z,15.03
2017-11-09T19:33:54.200Z,14.90
2017-11-09T19:36:21.644Z,15.23
2017-11-09T19:38:49.100Z,15.13
2017-11-09T19:41:16.544Z,15.53
2017-11-09T19:43:43.998Z,15.90
2017-11-09T19:46:11.470Z,13.80
2017-11-09T19:48:38.911Z,14.97
2017-11-09T19:51:06.367Z,14.50
2017-11-09T19:53:33.823Z,15.00
2017-11-09T19:56:01.285Z,13.60
2017-11-09T19:58:28.755Z,14.10
2017-11-09T20:00:56.203Z,14.13
2017-11-09T20:03:23.648Z,14.00
2017-11-09T20:05:51.102Z,15.00
2017-11-09T20:08:18.566Z,14.50
2017-11-09T20:10:46.013Z,14.97
2017-11-09T20:13:13.480Z,16.80
2017-11-09T20:15:40.958Z,16.57
2017-11-09T20:18:08.405Z,15.70
2017-11-09T20:20:35.876Z,14.90
2017-11-09T20:23:03.348Z,14.50
2017-11-09T20:25:30.795Z,14.50
2017-11-09T20:27:58.240Z,15.07
2017-11-09T20:30:25.696Z,16.10
2017-11-09T20:32:53.196Z,16.50
2017-11-09T20:35:21.408Z,17.60
2017-11-09T20:37:48.871Z,17.90
2017-11-09T20:40:16.672Z,17.93
2017-11-09T20:42:50.900Z,17.57
2017-11-09T20:45:19.128Z,18.13
2017-11-09T20:47:46.591Z,15.20
2017-11-09T20:50:15.839Z,14.30
2017-11-09T20:52:43.289Z,15.80
2017-11-09T20:55:11.529Z,15.60
2017-11-09T20:57:38.976Z,14.10
2017-11-09T21:00:06.429Z,14.20
2017-11-09T21:02:33.872Z,14.77
2017-11-09T21:05:01.321Z,14.50
2017-11-09T21:07:28.780Z,14.20
2017-11-09T21:09:56.270Z,15.03
2017-11-09T21:12:23.719Z,14.63
2017-11-09T21:14:51.175Z,14.53
2017-11-09T21:17:18.628Z,14.93
2017-11-09T21:19:46.124Z,15.70
2017-11-09T21:22:13.679Z,13.70
2017-11-09T21:24:42.823Z,12.33
2017-11-09T21:27:10.411Z,14.03
2017-11-09T21:29:37.860Z,14.10
2017-11-09T21:32:05.846Z,13.90
2017-11-09T21:34:34.074Z,14.43
2017-11-09T21:37:01.727Z,17.40
2017-11-09T21:39:29.193Z,18.17
2017-11-09T21:41:57.424Z,16.70
2017-11-09T21:44:25.637Z,14.87
2017-11-09T21:46:53.966Z,16.90
2017-11-09T21:49:21.567Z,16.43
2017-11-09T21:51:49.027Z,14.80
2017-11-09T21:54:16.499Z,15.10
2017-11-09T21:56:43.988Z,17.37
2017-11-09T21:59:15.197Z,16.47
2017-11-09T22:01:42.693Z,14.70
2017-11-09T22:04:10.948Z,14.13
2017-11-09T22:06:38.415Z,12.90
2017-11-09T22:09:05.891Z,12.37
2017-11-09T22:11:34.145Z,13.87
2017-11-09T22:14:01.602Z,13.70
2017-11-09T22:16:29.028Z,13.60
2017-11-09T22:18:56.470Z,12.60
2017-11-09T22:21:23.919Z,13.23
2017-11-09T22:23:51.376Z,12.53
2017-11-09T22:26:18.829Z,12.63
2017-11-09T22:28:46.287Z,13.20
2017-11-09T22:31:13.749Z,12.73
2017-11-09T22:33:41.200Z,12.93
2017-11-09T22:36:08.655Z,12.30
2017-11-09T22:38:36.092Z,12.43
2017-11-09T22:41:03.655Z,13.20
2017-11-09T22:43:31.120Z,12.33
2017-11-09T22:45:59.619Z,13.20
2017-11-09T22:48:27.164Z,13.60
2017-11-09T22:50:54.690Z,13.00
2017-11-09T22:53:22.198Z,12.47
2017-11-09T22:55:49.648Z,13.60
2017-11-09T22:58:17.095Z,15.67
2017-11-09T23:00:44.549Z,15.07
2017-11-09T23:03:12.002Z,14.90
2017-11-09T23:05:39.442Z,13.23
2017-11-09T23:08:06.880Z,14.00
2017-11-09T23:10:35.101Z,13.57
2017-11-09T23:13:03.312Z,12.63
2017-11-09T23:15:30.762Z,12.57
2017-11-09T23:17:58.200Z,12.63
2017-11-09T23:20:25.652Z,14.87
2017-11-09T23:22:53.105Z,12.83
2017-11-09T23:25:20.554Z,14.57
2017-11-09T23:27:48.000Z,13.17
2017-11-09T23:30:16.229Z,13.47
2017-11-09T23:32:43.668Z,13.77
2017-11-09T23:35:11.104Z,15.87
2017-11-09T23:37:38.557Z,17.43
2017-11-09T23:40:05.997Z,16.90
2017-11-09T23:42:33.460Z,17.77
2017-11-09T23:45:00.909Z,17.40
2017-11-09T23:47:28.368Z,17.60
2017-11-09T23:49:55.822Z,18.73
2017-11-09T23:52:23.277Z,19.50
2017-11-09T23:54:50.719Z,20.20
2017-11-09T23:57:18.163Z,19.90
2017-11-09T23:59:46.375Z,23.50
